메인 페이지
METAR-TAF:

METAR-TAF

공항 :

마타베리 국제공항

이스터 섬, 칠레

위도: 27-09S, 경도: 109-25W, 고도: 51m

현재 날씨관측

예보는 49분 전, 02:00시(UTC)에 발표되었습니다.
10kt
온도 23°C
습도 73%
기압 1027 hPa
시정 10km 이상
고도 2500ft 상공 구름 조금
고도 23000ft 상공 구름 많음

METAR: SCIP 130200Z 10010KT 9999 FEW025 BKN230 23/18 Q1027 NOSIG

시각: 21:49 (02:49 UTC)

예보

예보는 10 시간 19분 전, 16:30시(UTC)에 발표되었습니다.
예보 대상 시간: 12일 18시부터 13일 18시까지 (UTC)
15kt
시정 10km 이상
고도 2000ft 상공 구름 보통
일시적
12일 20시부터 13일 00시까지 (UTC)
남동15kt
고도 2000ft 상공 구름 많음
전환 중
13일 03시부터 13일 05시까지 (UTC)
동북동10kt
일시적
13일 10시부터 13일 15시까지 (UTC)
남동15kt
시정: 7000m
고도 2000ft 상공 구름 많음
약한소나기
전환 중
13일 16시부터 13일 18시까지 (UTC)
15kt
고도 2000ft 상공 구름 보통
고도 25000ft 상공 구름 보통

TAF: SCIP 121630Z 1218/1318 10015KT 9999 SCT020 TX26/1220Z TN20/1312Z TEMPO 1220/1300 13015KT BKN020 BECMG 1303/1305 07010KT TEMPO 1310/1315 13015KT 7000 -SHRA BKN020 BECMG 1316/1318 10015KT SCT020 SCT250

4,000개 이상의 공항 관측 자료 및 예보 (METAR 및 TAF 보고).

지도상에서 검색 가능한 기상관측소가 노란 점과 빨간 점으로 표시되어 있습니다.

기상관측소 명을 보려면 표시 위로 마우스를 이동하세요.

날씨 관측과 예보를 보려면 클릭하세요.

지도 변경 : 확대하려면 엑스 표시가 있는 녹색 버튼, 축소하려면 빼기 표시가 있는 녹색 버튼, 다음 페이지의 지도를 보려면 녹색 화살표를 클릭하세요.


METAR-TAF: